sensor_id;sensor_type;location;lat;lon;timestamp;temperature;humidity
38860;DHT22;24609;48.316;16.174;2022-12-08T00:00:01;3.50;38.40
38860;DHT22;24609;48.316;16.174;2022-12-08T00:02:26;3.50;35.60
38860;DHT22;24609;48.316;16.174;2022-12-08T00:04:52;3.60;32.90
38860;DHT22;24609;48.316;16.174;2022-12-08T00:07:37;3.60;29.40
38860;DHT22;24609;48.316;16.174;2022-12-08T00:10:21;3.70;34.60
38860;DHT22;24609;48.316;16.174;2022-12-08T00:12:47;3.70;32.50
38860;DHT22;24609;48.316;16.174;2022-12-08T00:15:12;3.70;34.20
38860;DHT22;24609;48.316;16.174;2022-12-08T00:17:38;3.90;32.30
38860;DHT22;24609;48.316;16.174;2022-12-08T00:20:04;3.80;28.70
38860;DHT22;24609;48.316;16.174;2022-12-08T00:22:30;3.90;24.80
38860;DHT22;24609;48.316;16.174;2022-12-08T00:24:56;3.70;19.20
38860;DHT22;24609;48.316;16.174;2022-12-08T00:27:22;3.70;20.90
38860;DHT22;24609;48.316;16.174;2022-12-08T00:29:48;3.70;12.80
38860;DHT22;24609;48.316;16.174;2022-12-08T00:32:13;3.60;1.00
38860;DHT22;24609;48.316;16.174;2022-12-08T00:34:39;3.70;1.00
38860;DHT22;24609;48.316;16.174;2022-12-08T00:37:05;3.60;1.00
38860;DHT22;24609;48.316;16.174;2022-12-08T00:39:30;3.60;1.00
38860;DHT22;24609;48.316;16.174;2022-12-08T00:41:56;3.50;1.00
38860;DHT22;24609;48.316;16.174;2022-12-08T00:44:41;3.40;1.00
38860;DHT22;24609;48.316;16.174;2022-12-08T00:47:07;3.30;1.00
38860;DHT22;24609;48.316;16.174;2022-12-08T00:49:33;3.20;1.00
38860;DHT22;24609;48.316;16.174;2022-12-08T00:51:58;3.20;1.00
38860;DHT22;24609;48.316;16.174;2022-12-08T00:54:24;3.10;7.20
38860;DHT22;24609;48.316;16.174;2022-12-08T00:56:50;3.10;89.20
38860;DHT22;24609;48.316;16.174;2022-12-08T00:59:16;3.00;99.90
38860;DHT22;24609;48.316;16.174;2022-12-08T01:01:44;2.90;99.90
38860;DHT22;24609;48.316;16.174;2022-12-08T01:04:12;2.90;99.90
38860;DHT22;24609;48.316;16.174;2022-12-08T01:06:40;2.90;99.90
38860;DHT22;24609;48.316;16.174;2022-12-08T01:09:07;2.80;99.90
38860;DHT22;24609;48.316;16.174;2022-12-08T01:11:34;2.80;1.00
38860;DHT22;24609;48.316;16.174;2022-12-08T01:14:00;2.80;1.00
38860;DHT22;24609;48.316;16.174;2022-12-08T01:16:29;2.80;7.60
38860;DHT22;24609;48.316;16.174;2022-12-08T01:18:58;2.80;99.90
38860;DHT22;24609;48.316;16.174;2022-12-08T01:21:25;2.80;99.90
38860;DHT22;24609;48.316;16.174;2022-12-08T01:23:51;2.80;99.90
38860;DHT22;24609;48.316;16.174;2022-12-08T01:26:17;2.80;99.90
38860;DHT22;24609;48.316;16.174;2022-12-08T01:28:45;2.80;99.90
38860;DHT22;24609;48.316;16.174;2022-12-08T01:31:18;2.80;99.90
38860;DHT22;24609;48.316;16.174;2022-12-08T01:33:44;2.80;99.90
38860;DHT22;24609;48.316;16.174;2022-12-08T01:36:36;2.70;99.90
38860;DHT22;24609;48.316;16.174;2022-12-08T01:39:04;2.70;99.90
38860;DHT22;24609;48.316;16.174;2022-12-08T01:41:34;2.70;99.90
38860;DHT22;24609;48.316;16.174;2022-12-08T01:46:34;2.70;99.90
38860;DHT22;24609;48.316;16.174;2022-12-08T01:49:05;2.70;99.90
38860;DHT22;24609;48.316;16.174;2022-12-08T01:51:40;2.70;99.90
38860;DHT22;24609;48.316;16.174;2022-12-08T01:54:07;2.70;99.90
38860;DHT22;24609;48.316;16.174;2022-12-08T01:56:41;2.70;99.90
38860;DHT22;24609;48.316;16.174;2022-12-08T01:59:08;2.70;99.90
38860;DHT22;24609;48.316;16.174;2022-12-08T02:01:35;2.70;99.90
38860;DHT22;24609;48.316;16.174;2022-12-08T02:04:02;2.80;99.90
38860;DHT22;24609;48.316;16.174;2022-12-08T02:06:31;2.80;99.90
38860;DHT22;24609;48.316;16.174;2022-12-08T02:08:59;2.70;2.50
38860;DHT22;24609;48.316;16.174;2022-12-08T02:11:26;2.60;1.00
38860;DHT22;24609;48.316;16.174;2022-12-08T02:13:52;2.50;8.30
38860;DHT22;24609;48.316;16.174;2022-12-08T02:22:21;2.60;2.50
38860;DHT22;24609;48.316;16.174;2022-12-08T02:27:45;2.60;2.70
38860;DHT22;24609;48.316;16.174;2022-12-08T02:47:17;2.60;45.00
38860;DHT22;24609;48.316;16.174;2022-12-08T02:49:43;2.60;34.00
38860;DHT22;24609;48.316;16.174;2022-12-08T02:54:41;2.50;32.50
38860;DHT22;24609;48.316;16.174;2022-12-08T02:57:13;2.60;32.30
38860;DHT22;24609;48.316;16.174;2022-12-08T02:59:53;2.60;35.30
38860;DHT22;24609;48.316;16.174;2022-12-08T03:07:52;2.70;24.40
38860;DHT22;24609;48.316;16.174;2022-12-08T03:13:14;2.70;27.80
38860;DHT22;24609;48.316;16.174;2022-12-08T03:15:44;2.70;31.60
38860;DHT22;24609;48.316;16.174;2022-12-08T03:18:15;2.60;40.40
38860;DHT22;24609;48.316;16.174;2022-12-08T03:20:43;2.70;41.70
38860;DHT22;24609;48.316;16.174;2022-12-08T03:23:11;2.70;47.00
38860;DHT22;24609;48.316;16.174;2022-12-08T03:25:43;2.70;28.40
38860;DHT22;24609;48.316;16.174;2022-12-08T03:28:12;2.60;24.90
38860;DHT22;24609;48.316;16.174;2022-12-08T03:30:39;2.60;25.00
38860;DHT22;24609;48.316;16.174;2022-12-08T03:33:29;2.60;28.20
38860;DHT22;24609;48.316;16.174;2022-12-08T03:35:53;2.60;27.30
38860;DHT22;24609;48.316;16.174;2022-12-08T03:38:20;2.60;26.10
38860;DHT22;24609;48.316;16.174;2022-12-08T03:40:46;2.60;26.40
38860;DHT22;24609;48.316;16.174;2022-12-08T03:43:35;2.70;26.60
38860;DHT22;24609;48.316;16.174;2022-12-08T03:46:01;2.60;26.90
38860;DHT22;24609;48.316;16.174;2022-12-08T03:48:26;2.60;38.50
38860;DHT22;24609;48.316;16.174;2022-12-08T03:50:52;2.60;78.20
38860;DHT22;24609;48.316;16.174;2022-12-08T03:53:18;2.60;91.70
38860;DHT22;24609;48.316;16.174;2022-12-08T03:55:43;2.60;94.00
38860;DHT22;24609;48.316;16.174;2022-12-08T03:58:09;2.70;86.80
38860;DHT22;24609;48.316;16.174;2022-12-08T04:00:35;2.70;69.70
38860;DHT22;24609;48.316;16.174;2022-12-08T04:03:00;2.80;41.60
38860;DHT22;24609;48.316;16.174;2022-12-08T04:05:26;2.70;41.90
38860;DHT22;24609;48.316;16.174;2022-12-08T04:07:56;2.70;32.60
38860;DHT22;24609;48.316;16.174;2022-12-08T04:10:21;2.70;31.60
38860;DHT22;24609;48.316;16.174;2022-12-08T04:12:47;2.70;35.90
38860;DHT22;24609;48.316;16.174;2022-12-08T04:15:13;2.80;46.90
38860;DHT22;24609;48.316;16.174;2022-12-08T04:17:38;2.80;57.30
38860;DHT22;24609;48.316;16.174;2022-12-08T04:20:04;2.80;55.10
38860;DHT22;24609;48.316;16.174;2022-12-08T04:22:30;2.80;47.20
38860;DHT22;24609;48.316;16.174;2022-12-08T04:24:56;2.80;42.30
38860;DHT22;24609;48.316;16.174;2022-12-08T04:27:21;2.70;41.90
38860;DHT22;24609;48.316;16.174;2022-12-08T04:29:47;2.70;50.20
38860;DHT22;24609;48.316;16.174;2022-12-08T04:32:13;2.70;57.80
38860;DHT22;24609;48.316;16.174;2022-12-08T04:34:38;2.70;48.80
38860;DHT22;24609;48.316;16.174;2022-12-08T04:37:04;2.70;81.70
38860;DHT22;24609;48.316;16.174;2022-12-08T04:39:29;2.60;96.90
38860;DHT22;24609;48.316;16.174;2022-12-08T04:41:55;2.60;99.70
38860;DHT22;24609;48.316;16.174;2022-12-08T04:44:21;2.60;99.10
38860;DHT22;24609;48.316;16.174;2022-12-08T04:46:46;2.60;99.90
38860;DHT22;24609;48.316;16.174;2022-12-08T04:49:12;2.70;99.90
38860;DHT22;24609;48.316;16.174;2022-12-08T04:51:38;2.60;99.90
38860;DHT22;24609;48.316;16.174;2022-12-08T04:54:04;2.60;90.50
38860;DHT22;24609;48.316;16.174;2022-12-08T04:56:29;2.60;99.90
38860;DHT22;24609;48.316;16.174;2022-12-08T04:58:55;2.60;99.90
38860;DHT22;24609;48.316;16.174;2022-12-08T05:01:21;2.70;99.90
38860;DHT22;24609;48.316;16.174;2022-12-08T05:03:46;2.70;99.90
38860;DHT22;24609;48.316;16.174;2022-12-08T05:06:13;2.60;99.90
38860;DHT22;24609;48.316;16.174;2022-12-08T05:08:39;2.50;99.90
38860;DHT22;24609;48.316;16.174;2022-12-08T05:11:07;2.50;99.90
38860;DHT22;24609;48.316;16.174;2022-12-08T05:13:32;2.50;99.90
38860;DHT22;24609;48.316;16.174;2022-12-08T05:16:06;2.50;99.90
38860;DHT22;24609;48.316;16.174;2022-12-08T05:18:33;2.50;99.90
38860;DHT22;24609;48.316;16.174;2022-12-08T05:20:59;2.50;99.90
38860;DHT22;24609;48.316;16.174;2022-12-08T05:23:25;2.50;99.90
38860;DHT22;24609;48.316;16.174;2022-12-08T05:25:50;2.50;99.90
38860;DHT22;24609;48.316;16.174;2022-12-08T05:28:16;2.40;99.90
38860;DHT22;24609;48.316;16.174;2022-12-08T05:30:42;2.40;99.90
38860;DHT22;24609;48.316;16.174;2022-12-08T05:33:08;2.20;99.90
38860;DHT22;24609;48.316;16.174;2022-12-08T05:35:33;2.20;99.90
38860;DHT22;24609;48.316;16.174;2022-12-08T05:37:59;2.20;99.90
38860;DHT22;24609;48.316;16.174;2022-12-08T05:40:24;2.20;99.90
38860;DHT22;24609;48.316;16.174;2022-12-08T05:42:50;2.20;99.90
38860;DHT22;24609;48.316;16.174;2022-12-08T05:45:17;2.20;99.90
38860;DHT22;24609;48.316;16.174;2022-12-08T05:47:43;2.30;99.90
38860;DHT22;24609;48.316;16.174;2022-12-08T05:50:09;2.30;99.90
38860;DHT22;24609;48.316;16.174;2022-12-08T05:52:34;2.30;99.90
38860;DHT22;24609;48.316;16.174;2022-12-08T05:55:01;2.30;99.90
38860;DHT22;24609;48.316;16.174;2022-12-08T05:57:27;2.30;99.90
38860;DHT22;24609;48.316;16.174;2022-12-08T05:59:53;2.20;99.90
38860;DHT22;24609;48.316;16.174;2022-12-08T06:02:18;2.20;99.90
38860;DHT22;24609;48.316;16.174;2022-12-08T06:04:44;2.30;99.90
38860;DHT22;24609;48.316;16.174;2022-12-08T06:07:09;2.30;99.90
38860;DHT22;24609;48.316;16.174;2022-12-08T06:09:35;2.30;99.90
38860;DHT22;24609;48.316;16.174;2022-12-08T06:12:01;2.30;99.90
38860;DHT22;24609;48.316;16.174;2022-12-08T06:14:27;2.30;99.90
38860;DHT22;24609;48.316;16.174;2022-12-08T06:16:52;2.30;99.90
38860;DHT22;24609;48.316;16.174;2022-12-08T06:19:18;2.30;99.90
38860;DHT22;24609;48.316;16.174;2022-12-08T06:21:44;2.20;99.90
38860;DHT22;24609;48.316;16.174;2022-12-08T06:24:10;2.30;99.90
38860;DHT22;24609;48.316;16.174;2022-12-08T06:26:36;2.30;99.90
38860;DHT22;24609;48.316;16.174;2022-12-08T06:29:02;2.40;99.90
38860;DHT22;24609;48.316;16.174;2022-12-08T06:31:29;2.40;99.90
38860;DHT22;24609;48.316;16.174;2022-12-08T06:33:56;2.30;99.90
38860;DHT22;24609;48.316;16.174;2022-12-08T06:36:24;2.30;99.90
38860;DHT22;24609;48.316;16.174;2022-12-08T06:38:50;2.30;99.90
38860;DHT22;24609;48.316;16.174;2022-12-08T06:41:16;2.30;99.90
38860;DHT22;24609;48.316;16.174;2022-12-08T06:43:42;2.30;99.90
38860;DHT22;24609;48.316;16.174;2022-12-08T06:46:11;2.40;99.90
38860;DHT22;24609;48.316;16.174;2022-12-08T06:48:37;2.30;99.90
38860;DHT22;24609;48.316;16.174;2022-12-08T06:51:11;2.40;99.90
38860;DHT22;24609;48.316;16.174;2022-12-08T06:53:37;2.50;99.90
38860;DHT22;24609;48.316;16.174;2022-12-08T06:56:04;2.60;95.60
38860;DHT22;24609;48.316;16.174;2022-12-08T06:58:30;2.70;1.00
38860;DHT22;24609;48.316;16.174;2022-12-08T07:00:56;2.80;99.90
38860;DHT22;24609;48.316;16.174;2022-12-08T07:03:21;2.80;43.20
38860;DHT22;24609;48.316;16.174;2022-12-08T07:05:47;2.90;99.90
38860;DHT22;24609;48.316;16.174;2022-12-08T07:08:13;2.90;99.90
38860;DHT22;24609;48.316;16.174;2022-12-08T07:10:39;3.00;99.90
38860;DHT22;24609;48.316;16.174;2022-12-08T07:13:05;3.00;99.90
38860;DHT22;24609;48.316;16.174;2022-12-08T07:15:30;3.00;99.90
38860;DHT22;24609;48.316;16.174;2022-12-08T07:17:56;3.00;1.00
38860;DHT22;24609;48.316;16.174;2022-12-08T07:20:22;3.00;99.90
38860;DHT22;24609;48.316;16.174;2022-12-08T07:22:51;3.10;1.00
38860;DHT22;24609;48.316;16.174;2022-12-08T07:25:17;3.20;99.90
38860;DHT22;24609;48.316;16.174;2022-12-08T07:27:44;3.20;99.90
38860;DHT22;24609;48.316;16.174;2022-12-08T07:30:10;3.30;1.00
38860;DHT22;24609;48.316;16.174;2022-12-08T07:32:37;3.30;99.90
38860;DHT22;24609;48.316;16.174;2022-12-08T07:35:04;3.40;99.90
38860;DHT22;24609;48.316;16.174;2022-12-08T07:37:32;3.40;1.00
38860;DHT22;24609;48.316;16.174;2022-12-08T07:39:58;3.40;75.80
38860;DHT22;24609;48.316;16.174;2022-12-08T07:42:23;3.50;57.00
38860;DHT22;24609;48.316;16.174;2022-12-08T07:44:49;3.60;1.00
38860;DHT22;24609;48.316;16.174;2022-12-08T07:47:14;3.60;1.00
38860;DHT22;24609;48.316;16.174;2022-12-08T07:49:40;3.70;99.90
38860;DHT22;24609;48.316;16.174;2022-12-08T07:52:06;3.70;1.00
38860;DHT22;24609;48.316;16.174;2022-12-08T07:54:31;3.70;51.30
38860;DHT22;24609;48.316;16.174;2022-12-08T07:56:57;3.80;1.00
38860;DHT22;24609;48.316;16.174;2022-12-08T07:59:23;3.80;99.90
38860;DHT22;24609;48.316;16.174;2022-12-08T08:01:48;3.90;98.90
38860;DHT22;24609;48.316;16.174;2022-12-08T08:04:15;3.90;1.00
38860;DHT22;24609;48.316;16.174;2022-12-08T08:06:41;4.00;99.90
38860;DHT22;24609;48.316;16.174;2022-12-08T08:09:07;4.10;99.90
38860;DHT22;24609;48.316;16.174;2022-12-08T08:11:34;4.10;1.00
38860;DHT22;24609;48.316;16.174;2022-12-08T08:14:00;4.10;99.90
38860;DHT22;24609;48.316;16.174;2022-12-08T08:16:26;4.20;98.40
38860;DHT22;24609;48.316;16.174;2022-12-08T08:18:52;4.20;1.00
38860;DHT22;24609;48.316;16.174;2022-12-08T08:21:18;4.10;1.00
38860;DHT22;24609;48.316;16.174;2022-12-08T08:23:44;4.20;1.00
38860;DHT22;24609;48.316;16.174;2022-12-08T08:26:10;4.40;1.00
38860;DHT22;24609;48.316;16.174;2022-12-08T08:28:36;4.50;1.00
38860;DHT22;24609;48.316;16.174;2022-12-08T08:31:02;4.60;99.90
38860;DHT22;24609;48.316;16.174;2022-12-08T08:33:28;4.80;99.90
38860;DHT22;24609;48.316;16.174;2022-12-08T08:35:54;5.70;99.90
38860;DHT22;24609;48.316;16.174;2022-12-08T08:38:20;6.90;99.90
38860;DHT22;24609;48.316;16.174;2022-12-08T08:40:45;8.30;1.00
38860;DHT22;24609;48.316;16.174;2022-12-08T08:43:11;9.40;99.90
38860;DHT22;24609;48.316;16.174;2022-12-08T08:45:55;9.20;99.90
38860;DHT22;24609;48.316;16.174;2022-12-08T08:48:21;8.80;99.90
38860;DHT22;24609;48.316;16.174;2022-12-08T08:50:47;8.40;99.90
38860;DHT22;24609;48.316;16.174;2022-12-08T08:53:12;7.70;99.90
38860;DHT22;24609;48.316;16.174;2022-12-08T08:55:38;8.80;99.90
38860;DHT22;24609;48.316;16.174;2022-12-08T08:58:04;8.60;99.90
38860;DHT22;24609;48.316;16.174;2022-12-08T09:00:30;8.50;99.90
38860;DHT22;24609;48.316;16.174;2022-12-08T09:02:55;8.90;99.90
38860;DHT22;24609;48.316;16.174;2022-12-08T09:05:21;9.10;99.90
38860;DHT22;24609;48.316;16.174;2022-12-08T09:07:47;9.90;99.90
38860;DHT22;24609;48.316;16.174;2022-12-08T09:10:13;10.40;99.90
38860;DHT22;24609;48.316;16.174;2022-12-08T09:12:38;10.90;99.90
38860;DHT22;24609;48.316;16.174;2022-12-08T09:15:04;11.10;99.90
38860;DHT22;24609;48.316;16.174;2022-12-08T09:17:30;11.70;99.90
38860;DHT22;24609;48.316;16.174;2022-12-08T09:19:56;12.30;99.90
38860;DHT22;24609;48.316;16.174;2022-12-08T09:22:21;13.60;1.00
38860;DHT22;24609;48.316;16.174;2022-12-08T09:24:48;12.50;99.90
38860;DHT22;24609;48.316;16.174;2022-12-08T09:27:13;14.10;99.90
38860;DHT22;24609;48.316;16.174;2022-12-08T09:29:39;14.30;99.90
38860;DHT22;24609;48.316;16.174;2022-12-08T09:32:05;13.40;99.90
38860;DHT22;24609;48.316;16.174;2022-12-08T09:34:30;13.20;99.90
38860;DHT22;24609;48.316;16.174;2022-12-08T09:36:56;12.20;99.90
38860;DHT22;24609;48.316;16.174;2022-12-08T09:39:22;11.10;99.90
38860;DHT22;24609;48.316;16.174;2022-12-08T09:41:57;9.90;99.90
38860;DHT22;24609;48.316;16.174;2022-12-08T09:44:53;9.30;1.00
38860;DHT22;24609;48.316;16.174;2022-12-08T09:47:32;8.90;99.90
38860;DHT22;24609;48.316;16.174;2022-12-08T09:50:05;8.90;99.90
38860;DHT22;24609;48.316;16.174;2022-12-08T09:52:46;9.20;99.90
38860;DHT22;24609;48.316;16.174;2022-12-08T09:55:22;9.00;99.90
38860;DHT22;24609;48.316;16.174;2022-12-08T09:57:56;8.50;99.90
38860;DHT22;24609;48.316;16.174;2022-12-08T10:00:24;7.90;1.00
38860;DHT22;24609;48.316;16.174;2022-12-08T10:02:50;7.40;1.00
38860;DHT22;24609;48.316;16.174;2022-12-08T10:05:16;7.20;99.90
38860;DHT22;24609;48.316;16.174;2022-12-08T10:07:45;7.50;99.90
38860;DHT22;24609;48.316;16.174;2022-12-08T10:18:16;9.30;1.00
38860;DHT22;24609;48.316;16.174;2022-12-08T10:20:43;9.00;99.90
38860;DHT22;24609;48.316;16.174;2022-12-08T10:28:26;9.40;99.90
38860;DHT22;24609;48.316;16.174;2022-12-08T10:30:52;9.00;99.90
38860;DHT22;24609;48.316;16.174;2022-12-08T10:33:19;8.60;99.90
38860;DHT22;24609;48.316;16.174;2022-12-08T10:40:43;8.60;1.00
38860;DHT22;24609;48.316;16.174;2022-12-08T10:43:18;8.50;77.50
38860;DHT22;24609;48.316;16.174;2022-12-08T10:45:45;8.30;1.00
38860;DHT22;24609;48.316;16.174;2022-12-08T10:48:15;8.20;99.90
38860;DHT22;24609;48.316;16.174;2022-12-08T10:50:58;7.80;99.90
38860;DHT22;24609;48.316;16.174;2022-12-08T10:53:27;7.60;99.90
38860;DHT22;24609;48.316;16.174;2022-12-08T11:01:23;8.00;99.90
38860;DHT22;24609;48.316;16.174;2022-12-08T11:03:53;7.50;99.90
38860;DHT22;24609;48.316;16.174;2022-12-08T11:06:29;7.20;99.90
38860;DHT22;24609;48.316;16.174;2022-12-08T11:09:03;7.40;99.90
38860;DHT22;24609;48.316;16.174;2022-12-08T11:14:26;7.50;1.00
38860;DHT22;24609;48.316;16.174;2022-12-08T11:19:37;6.90;1.00
38860;DHT22;24609;48.316;16.174;2022-12-08T11:22:28;6.70;99.90
38860;DHT22;24609;48.316;16.174;2022-12-08T11:27:37;7.20;99.90
38860;DHT22;24609;48.316;16.174;2022-12-08T11:30:21;7.50;99.90
38860;DHT22;24609;48.316;16.174;2022-12-08T11:32:51;7.60;25.80
38860;DHT22;24609;48.316;16.174;2022-12-08T11:35:34;7.70;99.90
38860;DHT22;24609;48.316;16.174;2022-12-08T11:38:12;7.60;1.00
38860;DHT22;24609;48.316;16.174;2022-12-08T11:40:41;7.80;1.00
38860;DHT22;24609;48.316;16.174;2022-12-08T11:46:07;7.90;99.90
38860;DHT22;24609;48.316;16.174;2022-12-08T11:49:02;7.60;99.90
38860;DHT22;24609;48.316;16.174;2022-12-08T11:51:38;7.60;99.90
38860;DHT22;24609;48.316;16.174;2022-12-08T11:54:21;7.40;99.90
38860;DHT22;24609;48.316;16.174;2022-12-08T11:56:58;7.30;99.90
38860;DHT22;24609;48.316;16.174;2022-12-08T11:59:44;7.30;99.90
38860;DHT22;24609;48.316;16.174;2022-12-08T12:02:20;7.20;99.90
38860;DHT22;24609;48.316;16.174;2022-12-08T12:05:04;7.00;99.90
38860;DHT22;24609;48.316;16.174;2022-12-08T12:13:23;6.80;1.00
38860;DHT22;24609;48.316;16.174;2022-12-08T12:18:42;6.80;46.10
38860;DHT22;24609;48.316;16.174;2022-12-08T12:23:53;6.60;99.90
38860;DHT22;24609;48.316;16.174;2022-12-08T12:26:29;6.60;99.90
38860;DHT22;24609;48.316;16.174;2022-12-08T12:29:05;6.60;99.90
38860;DHT22;24609;48.316;16.174;2022-12-08T12:31:41;6.60;1.00
38860;DHT22;24609;48.316;16.174;2022-12-08T12:34:15;6.50;1.00
38860;DHT22;24609;48.316;16.174;2022-12-08T12:36:51;6.50;99.90
38860;DHT22;24609;48.316;16.174;2022-12-08T12:39:21;6.60;99.90
38860;DHT22;24609;48.316;16.174;2022-12-08T12:57:23;6.50;1.00
38860;DHT22;24609;48.316;16.174;2022-12-08T13:07:39;6.60;99.90
38860;DHT22;24609;48.316;16.174;2022-12-08T13:12:43;6.60;99.90
38860;DHT22;24609;48.316;16.174;2022-12-08T13:15:17;6.60;99.90
38860;DHT22;24609;48.316;16.174;2022-12-08T13:17:46;6.50;99.90
38860;DHT22;24609;48.316;16.174;2022-12-08T13:20:21;6.50;19.10
38860;DHT22;24609;48.316;16.174;2022-12-08T13:25:45;6.50;99.90
38860;DHT22;24609;48.316;16.174;2022-12-08T13:28:26;6.40;1.00
38860;DHT22;24609;48.316;16.174;2022-12-08T13:30:52;6.50;99.90
38860;DHT22;24609;48.316;16.174;2022-12-08T13:33:24;6.50;99.90
38860;DHT22;24609;48.316;16.174;2022-12-08T13:35:59;6.50;99.90
38860;DHT22;24609;48.316;16.174;2022-12-08T13:38:29;6.50;99.90
38860;DHT22;24609;48.316;16.174;2022-12-08T13:40:56;6.40;99.90
38860;DHT22;24609;48.316;16.174;2022-12-08T13:43:43;6.50;99.90
38860;DHT22;24609;48.316;16.174;2022-12-08T13:46:11;6.50;99.90
38860;DHT22;24609;48.316;16.174;2022-12-08T13:48:47;6.50;1.00
38860;DHT22;24609;48.316;16.174;2022-12-08T13:51:18;6.50;99.90
38860;DHT22;24609;48.316;16.174;2022-12-08T13:53:56;6.50;99.90
38860;DHT22;24609;48.316;16.174;2022-12-08T13:56:22;6.50;99.90
38860;DHT22;24609;48.316;16.174;2022-12-08T13:58:48;6.40;99.90
38860;DHT22;24609;48.316;16.174;2022-12-08T14:01:20;6.40;99.90
38860;DHT22;24609;48.316;16.174;2022-12-08T14:03:52;6.30;99.90
38860;DHT22;24609;48.316;16.174;2022-12-08T14:06:41;6.20;99.90
38860;DHT22;24609;48.316;16.174;2022-12-08T14:09:23;6.10;1.00
38860;DHT22;24609;48.316;16.174;2022-12-08T14:12:47;6.10;99.90
38860;DHT22;24609;48.316;16.174;2022-12-08T14:14:49;6.00;99.90
38860;DHT22;24609;48.316;16.174;2022-12-08T14:17:21;6.00;90.10
38860;DHT22;24609;48.316;16.174;2022-12-08T14:19:56;6.00;99.90
38860;DHT22;24609;48.316;16.174;2022-12-08T14:22:22;6.00;99.90
38860;DHT22;24609;48.316;16.174;2022-12-08T14:24:53;5.90;99.90
38860;DHT22;24609;48.316;16.174;2022-12-08T14:27:24;6.00;1.00
38860;DHT22;24609;48.316;16.174;2022-12-08T14:29:52;5.90;21.90
38860;DHT22;24609;48.316;16.174;2022-12-08T14:37:37;5.70;99.90
38860;DHT22;24609;48.316;16.174;2022-12-08T14:42:50;5.70;99.90
38860;DHT22;24609;48.316;16.174;2022-12-08T14:45:17;5.60;1.00
38860;DHT22;24609;48.316;16.174;2022-12-08T14:47:43;5.60;1.00
38860;DHT22;24609;48.316;16.174;2022-12-08T14:50:42;5.50;24.80
38860;DHT22;24609;48.316;16.174;2022-12-08T14:53:13;5.50;99.90
38860;DHT22;24609;48.316;16.174;2022-12-08T14:55:38;5.40;99.90
38860;DHT22;24609;48.316;16.174;2022-12-08T14:58:04;5.40;99.90
38860;DHT22;24609;48.316;16.174;2022-12-08T15:00:30;5.40;99.90
38860;DHT22;24609;48.316;16.174;2022-12-08T15:02:58;5.40;1.00
38860;DHT22;24609;48.316;16.174;2022-12-08T15:05:28;5.40;1.00
38860;DHT22;24609;48.316;16.174;2022-12-08T15:07:59;5.40;99.90
38860;DHT22;24609;48.316;16.174;2022-12-08T15:10:28;5.30;1.00
38860;DHT22;24609;48.316;16.174;2022-12-08T15:12:59;5.30;1.00
38860;DHT22;24609;48.316;16.174;2022-12-08T15:15:25;5.30;1.00
38860;DHT22;24609;48.316;16.174;2022-12-08T15:22:55;5.20;8.80
38860;DHT22;24609;48.316;16.174;2022-12-08T15:25:22;5.10;76.90
38860;DHT22;24609;48.316;16.174;2022-12-08T15:27:49;5.10;99.90
38860;DHT22;24609;48.316;16.174;2022-12-08T15:30:15;5.10;99.90
38860;DHT22;24609;48.316;16.174;2022-12-08T15:32:41;5.00;99.90
38860;DHT22;24609;48.316;16.174;2022-12-08T15:35:11;5.00;99.90
38860;DHT22;24609;48.316;16.174;2022-12-08T15:37:36;5.00;99.90
38860;DHT22;24609;48.316;16.174;2022-12-08T15:40:03;5.00;99.90
38860;DHT22;24609;48.316;16.174;2022-12-08T15:42:28;5.00;99.90
38860;DHT22;24609;48.316;16.174;2022-12-08T15:44:54;5.00;99.90
38860;DHT22;24609;48.316;16.174;2022-12-08T15:47:22;5.00;99.90
38860;DHT22;24609;48.316;16.174;2022-12-08T15:49:49;5.00;99.90
38860;DHT22;24609;48.316;16.174;2022-12-08T15:52:19;5.00;99.90
38860;DHT22;24609;48.316;16.174;2022-12-08T15:54:45;5.00;99.90
38860;DHT22;24609;48.316;16.174;2022-12-08T15:57:30;5.00;99.90
38860;DHT22;24609;48.316;16.174;2022-12-08T15:59:56;5.00;99.90
38860;DHT22;24609;48.316;16.174;2022-12-08T16:02:23;5.00;99.90
38860;DHT22;24609;48.316;16.174;2022-12-08T16:04:49;4.90;1.00
38860;DHT22;24609;48.316;16.174;2022-12-08T16:07:28;5.00;1.00
38860;DHT22;24609;48.316;16.174;2022-12-08T16:09:55;4.90;1.00
38860;DHT22;24609;48.316;16.174;2022-12-08T16:12:23;4.90;1.00
38860;DHT22;24609;48.316;16.174;2022-12-08T16:15:08;4.80;1.00
38860;DHT22;24609;48.316;16.174;2022-12-08T16:17:34;4.80;1.00
38860;DHT22;24609;48.316;16.174;2022-12-08T16:20:01;4.80;1.00
38860;DHT22;24609;48.316;16.174;2022-12-08T16:22:31;4.80;1.00
38860;DHT22;24609;48.316;16.174;2022-12-08T16:24:57;4.70;1.00
38860;DHT22;24609;48.316;16.174;2022-12-08T16:27:28;4.70;1.00
38860;DHT22;24609;48.316;16.174;2022-12-08T16:29:56;4.70;1.00
38860;DHT22;24609;48.316;16.174;2022-12-08T16:32:22;4.70;1.00
38860;DHT22;24609;48.316;16.174;2022-12-08T16:34:48;4.60;1.00
38860;DHT22;24609;48.316;16.174;2022-12-08T16:37:21;4.60;1.00
38860;DHT22;24609;48.316;16.174;2022-12-08T16:39:48;4.60;1.00
38860;DHT22;24609;48.316;16.174;2022-12-08T16:42:21;4.50;1.00
38860;DHT22;24609;48.316;16.174;2022-12-08T16:47:41;4.50;1.00
38860;DHT22;24609;48.316;16.174;2022-12-08T16:50:19;4.50;1.00
38860;DHT22;24609;48.316;16.174;2022-12-08T16:52:46;4.50;1.00
38860;DHT22;24609;48.316;16.174;2022-12-08T16:55:14;4.50;1.00
38860;DHT22;24609;48.316;16.174;2022-12-08T16:57:40;4.50;2.10
38860;DHT22;24609;48.316;16.174;2022-12-08T17:00:09;4.50;1.00
38860;DHT22;24609;48.316;16.174;2022-12-08T17:02:36;4.50;1.00
38860;DHT22;24609;48.316;16.174;2022-12-08T17:05:03;4.50;1.00
38860;DHT22;24609;48.316;16.174;2022-12-08T17:07:29;4.50;1.00
38860;DHT22;24609;48.316;16.174;2022-12-08T17:09:54;4.50;1.00
38860;DHT22;24609;48.316;16.174;2022-12-08T17:12:20;4.50;1.00
38860;DHT22;24609;48.316;16.174;2022-12-08T17:14:46;4.40;1.00
38860;DHT22;24609;48.316;16.174;2022-12-08T17:17:12;4.40;21.90
38860;DHT22;24609;48.316;16.174;2022-12-08T17:19:37;4.40;34.10
38860;DHT22;24609;48.316;16.174;2022-12-08T17:22:03;4.40;28.90
38860;DHT22;24609;48.316;16.174;2022-12-08T17:24:30;4.30;34.40
38860;DHT22;24609;48.316;16.174;2022-12-08T17:26:56;4.30;33.20
38860;DHT22;24609;48.316;16.174;2022-12-08T17:29:22;4.30;37.30
38860;DHT22;24609;48.316;16.174;2022-12-08T17:31:49;4.30;54.40
38860;DHT22;24609;48.316;16.174;2022-12-08T17:34:14;4.30;36.40
38860;DHT22;24609;48.316;16.174;2022-12-08T17:36:40;4.20;58.80
38860;DHT22;24609;48.316;16.174;2022-12-08T17:39:06;4.10;88.00
38860;DHT22;24609;48.316;16.174;2022-12-08T17:41:33;4.10;99.90
38860;DHT22;24609;48.316;16.174;2022-12-08T17:43:59;4.00;99.90
38860;DHT22;24609;48.316;16.174;2022-12-08T17:46:25;4.00;99.90
38860;DHT22;24609;48.316;16.174;2022-12-08T17:48:51;4.00;99.90
38860;DHT22;24609;48.316;16.174;2022-12-08T17:51:18;3.90;99.90
38860;DHT22;24609;48.316;16.174;2022-12-08T17:53:44;3.90;99.90